Country
Station

 

Weather  for  Sussex, Sussex Airport  -  United States    United States

  
-3 °C (27 °F)
    
 
 

Current METAR for Sussex, Sussex Airport is :

KFWN 121453Z AUTO 00000KT 10SM UP CLR M03/M12 A3070 RMK AO2 UPB1354E09B44 SLP402 P0000 60000 T10331117 51010

 

This is a report for Sussex, Sussex Airport - United States.
 
The report was made a moment ago, at 14:53 UTC .
The wind was calm.
 
The temperature was -3 °C (27 °F), with a dew-point at -12 °C (10 °F).
The atmospheric pressure was 1040 hPa (30.70 inHg).
The relative humidity was 49.7%.
 
The sky was clear.
 
The overall visibility was 16.1 kilometers (10.0 miles).
 
Currently moderate unknown.

 
 
 
 

Country :   A   B   C   D   E   F   G   H   I   J   K   L   M   N   O   P   Q   R   S   T   U   V   W   Y   Z

 

Site Info  |  Disclaimer  |  Credits  |  Privacy
Contact us  |  Add to favorites
© 2013-2019 METARs - All rights reserved